Time;durP1;ratioP1;P1;durP2;ratioP2;P2;SDS_P1;SDS_P2;PMS_P1;PMS_P2;Temp;Humidity;BMP_temperature;BMP_pressure;BME280_temperature;BME280_humidity;BME280_pressure;Samples;Min_cycle;Max_cycle;Signal;HPM_P1;HPM_P2
2022/09/23 15:50:11;;;;;;;32.73;26.35;;;;;;;8.85;100.00;99344.02;1785875;78;23603;-72
2022/09/23 15:52:38;;;;;;;17.35;15.30;;;;;;;8.97;100.00;99358.95;1727144;82;21028;-73
2022/09/23 15:55:17;;;;;;;15.65;14.05;;;;;;;9.19;100.00;99363.30;1727394;82;21109;-72
2022/09/23 15:57:44;;;;;;;13.18;11.53;;;;;;;9.33;100.00;99363.02;1720448;82;21489;-70
2022/09/23 16:00:12;;;;;;;11.63;10.40;;;;;;;9.43;100.00;99366.55;1694138;82;21109;-72
2022/09/23 16:02:39;;;;;;;12.55;10.40;;;;;;;9.55;100.00;99370.89;1740820;82;21074;-73
2022/09/23 16:05:08;;;;;;;10.32;8.93;;;;;;;9.63;100.00;99361.65;1743321;81;21074;-72
2022/09/23 16:07:35;;;;;;;10.05;8.95;;;;;;;9.71;100.00;99367.05;1709051;82;21101;-71
2022/09/23 16:10:03;;;;;;;11.68;8.75;;;;;;;9.75;100.00;99368.95;1717261;82;21898;-69
2022/09/23 16:12:30;;;;;;;11.28;9.90;;;;;;;9.83;100.00;99367.58;1731702;82;21082;-70
2022/09/23 16:14:56;;;;;;;11.90;9.53;;;;;;;9.85;100.00;99366.20;1713795;82;21035;-70
2022/09/23 16:17:27;;;;;;;22.07;17.37;;;;;;;9.89;100.00;99371.36;1736977;82;21010;-71
2022/09/23 16:19:51;;;;;;;12.55;9.50;;;;;;;9.91;100.00;99368.37;1745588;82;21082;-71
2022/09/23 16:22:17;;;;;;;12.28;8.20;;;;;;;9.95;100.00;99374.90;1727908;82;20999;-71
2022/09/23 16:24:44;;;;;;;14.95;10.50;;;;;;;9.99;100.00;99373.23;1728667;82;21098;-71
2022/09/23 16:27:12;;;;;;;18.98;11.53;;;;;;;10.05;100.00;99374.05;1747513;81;21057;-71
2022/09/23 16:29:38;;;;;;;12.47;9.05;;;;;;;10.06;100.00;99376.47;1728035;82;21621;-71
2022/09/23 16:32:06;;;;;;;9.63;6.97;;;;;;;10.08;100.00;99377.02;1730915;82;21106;-71
2022/09/23 16:34:33;;;;;;;11.12;7.50;;;;;;;10.07;100.00;99372.67;1723352;82;21062;-72
2022/09/23 16:36:59;;;;;;;13.08;9.80;;;;;;;10.09;100.00;99371.05;1731130;82;21003;-72
2022/09/23 16:39:26;;;;;;;;;;;;;;;10.15;100.00;99368.59;1738317;82;21074;-70
2022/09/23 16:41:52;;;;;;;6.37;5.33;;;;;;;10.15;100.00;99373.50;1733878;82;20157;-72
2022/09/23 16:44:20;;;;;;;7.28;5.72;;;;;;;10.05;100.00;99368.61;1737078;82;21066;-72
2022/09/23 16:46:46;;;;;;;15.85;10.45;;;;;;;10.07;100.00;99368.59;1731617;82;21117;-71
2022/09/23 16:49:13;;;;;;;;;;;;;;;10.12;100.00;99374.56;1738473;81;21081;-71
2022/09/23 16:51:39;;;;;;;16.95;11.50;;;;;;;10.18;100.00;99364.77;1744458;82;20138;-70
2022/09/23 16:54:10;;;;;;;18.10;13.28;;;;;;;10.20;100.00;99369.95;1750902;81;21452;-71
2022/09/23 16:56:43;;;;;;;10.88;8.30;;;;;;;10.26;100.00;99372.37;1736163;81;21078;-70
2022/09/23 16:59:12;;;;;;;11.43;7.05;;;;;;;10.26;100.00;99373.73;1722809;83;21015;-70
2022/09/23 17:04:22;;;;;;;10.45;7.15;;;;;;;10.23;100.00;99374.83;1751747;81;21019;-69
2022/09/23 17:06:50;;;;;;;9.63;7.60;;;;;;;10.28;100.00;99371.53;1738215;82;21055;-70
2022/09/23 17:09:19;;;;;;;11.80;7.58;;;;;;;10.26;100.00;99375.63;1721247;82;21050;-70
2022/09/23 17:11:58;;;;;;;11.40;7.17;;;;;;;10.21;100.00;99377.00;1743385;82;21150;-70
2022/09/23 17:14:27;;;;;;;9.65;7.70;;;;;;;10.18;100.00;99383.00;1736395;81;21470;-70
2022/09/23 17:16:53;;;;;;;9.58;8.00;;;;;;;10.11;100.00;99377.83;1695077;83;21086;-70
2022/09/23 17:19:20;;;;;;;10.80;7.78;;;;;;;10.11;100.00;99379.19;1734463;82;21074;-69
2022/09/23 17:21:47;;;;;;;11.00;7.85;;;;;;;10.14;100.00;99380.52;1726319;81;21050;-73
2022/09/23 17:24:13;;;;;;;12.98;11.00;;;;;;;10.12;100.00;99378.10;1724537;82;21118;-70
2022/09/23 17:26:40;;;;;;;10.55;9.45;;;;;;;10.10;100.00;99376.73;1742566;81;21054;-70
2022/09/23 17:29:08;;;;;;;10.55;9.45;;;;;;;10.05;100.00;99378.94;1740861;82;21039;-71
2022/09/23 17:31:35;;;;;;;10.98;8.50;;;;;;;9.99;100.00;99379.48;1703033;82;21047;-72
2022/09/23 17:34:02;;;;;;;12.85;8.50;;;;;;;9.98;100.00;99380.59;1736196;82;21046;-72
2022/09/23 17:36:29;;;;;;;9.70;8.70;;;;;;;10.03;100.00;99376.20;1693742;83;21076;-73
2022/09/23 17:38:55;;;;;;;9.38;8.03;;;;;;;10.00;100.00;99381.13;1721243;82;21105;-71
2022/09/23 17:41:22;;;;;;;9.90;8.48;;;;;;;10.04;100.00;99379.20;1744224;81;21134;-71
2022/09/23 17:43:55;;;;;;;12.50;10.25;;;;;;;9.99;100.00;99382.20;1746962;82;21098;-71
2022/09/23 17:46:22;;;;;;;11.35;8.40;;;;;;;9.93;100.00;99379.23;1729110;82;21098;-71
2022/09/23 17:48:51;;;;;;;;;;;;;;;9.92;100.00;99374.88;1724841;82;21035;-70
2022/09/23 17:51:18;;;;;;;8.68;7.20;;;;;;;9.95;100.00;99371.60;1711806;82;20117;-70
2022/09/23 17:53:47;;;;;;;9.73;6.25;;;;;;;9.92;100.00;99366.73;1722237;81;21027;-71
2022/09/23 17:56:21;;;;;;;7.58;5.90;;;;;;;9.95;100.00;99374.90;1712738;82;21522;-71
2022/09/23 17:58:48;;;;;;;9.40;6.20;;;;;;;9.96;100.00;99372.42;1725689;81;21023;-70
2022/09/23 18:01:21;;;;;;;7.22;5.80;;;;;;;9.99;100.00;99366.42;1724858;82;21043;-71
2022/09/23 18:03:47;;;;;;;8.40;6.17;;;;;;;9.91;100.00;99368.37;1712190;81;21062;-73
2022/09/23 18:06:15;;;;;;;;;;;;;;;9.84;100.00;99367.31;1712854;82;21086;-72
2022/09/23 18:08:43;;;;;;;9.80;7.03;;;;;;;9.83;100.00;99362.95;1707712;82;20228;-72
2022/09/23 18:11:12;;;;;;;8.93;6.53;;;;;;;9.81;100.00;99371.13;1717684;82;21071;-72
2022/09/23 18:13:39;;;;;;;10.68;7.78;;;;;;;9.86;100.00;99368.37;1727753;82;21071;-71
2022/09/23 18:16:06;;;;;;;8.65;6.85;;;;;;;9.83;100.00;99367.03;1718119;82;21122;-71
2022/09/23 18:18:33;;;;;;;9.50;6.35;;;;;;;9.79;100.00;99363.77;1688126;83;21015;-71
2022/09/23 18:21:01;;;;;;;7.92;5.65;;;;;;;9.78;100.00;99369.75;1707316;84;21098;-72
2022/09/23 18:23:28;;;;;;;7.00;5.30;;;;;;;9.79;100.00;99360.52;1684793;84;21023;-72
2022/09/23 18:25:55;;;;;;;;;;;;;;;9.80;100.00;99362.70;1719334;82;21166;-72
2022/09/23 18:28:21;;;;;;;11.57;8.28;;;;;;;9.76;100.00;99365.14;1736695;82;20469;-72
2022/09/23 18:30:53;;;;;;;;;;;;;;;9.70;100.00;99364.08;1739139;81;21094;-72
2022/09/23 18:33:20;;;;;;;15.35;8.95;;;;;;;9.74;100.00;99363.23;1732534;82;20122;-71
2022/09/23 18:35:46;;;;;;;6.17;3.92;;;;;;;9.75;100.00;99364.05;1732054;81;21079;-71
2022/09/23 18:38:13;;;;;;;4.65;3.40;;;;;;;9.72;100.00;99359.98;1726370;82;21558;-71
2022/09/23 18:40:54;;;;;;;5.62;3.47;;;;;;;9.65;100.00;99362.17;1708829;82;21047;-72
2022/09/23 18:43:20;;;;;;;5.45;3.42;;;;;;;9.64;100.00;99355.64;1706329;82;21003;-70
2022/09/23 18:46:05;;;;;;;4.47;3.20;;;;;;;9.62;100.00;99361.91;1713280;81;21453;-70
2022/09/23 18:51:21;;;;;;;14.28;11.28;;;;;;;9.59;100.00;99361.11;1703727;82;21138;-71
2022/09/23 18:53:49;;;;;;;13.58;11.38;;;;;;;9.60;100.00;99356.73;1693813;83;21518;-72
2022/09/23 18:56:17;;;;;;;8.88;6.12;;;;;;;9.63;100.00;99352.67;1694629;82;21071;-72
2022/09/23 18:58:46;;;;;;;10.48;7.05;;;;;;;9.62;100.00;99358.65;1729226;82;21082;-72
2022/09/23 19:01:14;;;;;;;12.30;7.83;;;;;;;9.58;100.00;99360.28;1733187;82;21102;-72
2022/09/23 19:03:40;;;;;;;;;;;;;;;9.60;100.00;99358.09;1729339;82;21023;-72
2022/09/23 19:06:09;;;;;;;10.03;6.78;;;;;;;9.67;100.00;99357.27;1731395;82;20147;-71
2022/09/23 19:08:36;;;;;;;11.12;5.95;;;;;;;9.63;100.00;99358.94;1730060;82;21027;-72
2022/09/23 19:11:05;;;;;;;9.65;6.87;;;;;;;9.62;100.00;99359.19;1717524;82;21122;-72
2022/09/23 19:13:32;;;;;;;8.20;7.10;;;;;;;9.64;100.00;99357.00;1707934;84;21118;-72
2022/09/23 19:16:08;;;;;;;7.85;5.72;;;;;;;9.60;100.00;99350.52;1708684;82;21123;-72
2022/09/23 19:18:37;;;;;;;11.08;5.90;;;;;;;9.53;100.00;99356.20;1703071;82;21087;-73
2022/09/23 19:21:05;;;;;;;10.95;5.80;;;;;;;9.51;100.00;99351.59;1737233;82;21039;-73
2022/09/23 19:23:33;;;;;;;8.50;5.08;;;;;;;9.55;100.00;99349.15;1734414;82;20979;-73
2022/09/23 19:26:02;;;;;;;5.97;3.95;;;;;;;9.62;100.00;99348.32;1707426;84;21091;-72
2022/09/23 19:28:29;;;;;;;9.23;4.12;;;;;;;9.64;100.00;99346.95;1707759;82;21868;-72
2022/09/23 19:30:55;;;;;;;6.75;4.55;;;;;;;9.63;100.00;99339.91;1733023;82;21330;-73
2022/09/23 19:33:21;;;;;;;6.70;4.40;;;;;;;9.64;100.00;99352.39;1737410;82;21022;-73
2022/09/23 19:35:52;;;;;;;6.45;4.62;;;;;;;9.64;100.00;99345.59;1728165;82;21071;-72
2022/09/23 19:38:20;;;;;;;7.87;4.42;;;;;;;9.70;100.00;99347.77;1713744;82;21498;-72
2022/09/23 19:40:47;;;;;;;7.10;3.92;;;;;;;9.71;100.00;99337.14;1728762;82;21114;-72
2022/09/23 19:43:14;;;;;;;6.95;4.35;;;;;;;9.70;100.00;99340.98;1731604;82;21019;-72
2022/09/23 19:45:43;;;;;;;5.40;4.15;;;;;;;9.67;100.00;99341.53;1729313;82;21027;-71
2022/09/23 19:48:09;;;;;;;6.33;4.17;;;;;;;9.65;100.00;99336.89;1715157;82;21498;-72
2022/09/23 19:50:40;;;;;;;6.28;3.60;;;;;;;9.63;100.00;99337.73;1718256;81;21055;-72
2022/09/23 19:53:07;;;;;;;6.12;4.00;;;;;;;9.65;100.00;99345.05;1745944;82;21089;-71
2022/09/23 19:55:34;;;;;;;;;;;;;;;9.74;100.00;99340.13;1735717;82;21133;-72
2022/09/23 19:58:01;;;;;;;6.05;4.37;;;;;;;9.82;100.00;99343.65;1724154;82;20180;-71
2022/09/23 20:00:27;;;;;;;;;;;;;;;9.78;100.00;99347.19;1748174;82;21066;-71
2022/09/23 20:02:54;;;;;;;7.20;4.80;;;;;;;9.79;100.00;99346.11;1733367;82;20128;-71
2022/09/23 20:05:22;;;;;;;7.15;5.17;;;;;;;9.82;100.00;99343.65;1721385;83;21070;-71
2022/09/23 20:07:50;;;;;;;9.95;5.20;;;;;;;9.87;100.00;99342.28;1721243;82;21046;-70
2022/09/23 20:10:17;;;;;;;7.95;5.78;;;;;;;9.88;100.00;99337.09;1727353;82;21130;-71
2022/09/23 20:12:43;;;;;;;9.85;5.33;;;;;;;9.88;100.00;99336.31;1692707;84;21608;-71
2022/09/23 20:15:10;;;;;;;8.20;5.72;;;;;;;9.83;100.00;99325.44;1732340;82;21581;-72
2022/09/23 20:17:39;;;;;;;8.65;5.42;;;;;;;9.84;100.00;99331.16;1685152;84;21121;-71
2022/09/23 20:20:08;;;;;;;9.15;5.75;;;;;;;9.89;100.00;99331.12;1725237;82;21043;-71
2022/09/23 20:22:35;;;;;;;7.75;6.05;;;;;;;9.91;100.00;99322.16;1721619;82;21101;-71
2022/09/23 20:25:01;;;;;;;9.83;6.15;;;;;;;9.85;100.00;99330.86;1721493;83;21118;-71
2022/09/23 20:27:30;;;;;;;7.10;5.75;;;;;;;9.84;100.00;99325.72;1721355;82;21071;-71
2022/09/23 20:29:57;;;;;;;10.72;6.67;;;;;;;9.84;100.00;99327.08;1727528;82;21082;-71
2022/09/23 20:32:24;;;;;;;8.00;5.67;;;;;;;9.84;100.00;99323.00;1699013;82;21019;-71
2022/09/23 20:34:52;;;;;;;5.58;4.78;;;;;;;9.88;100.00;99328.94;1737133;82;21157;-72
2022/09/23 20:37:19;;;;;;;9.30;5.10;;;;;;;9.92;100.00;99322.41;1750503;81;20999;-72
2022/09/23 20:39:46;;;;;;;8.73;5.80;;;;;;;9.92;100.00;99321.86;1743432;82;21110;-72
2022/09/23 20:42:15;;;;;;;6.65;5.10;;;;;;;9.93;100.00;99318.60;1725431;82;21039;-71
2022/09/23 20:44:43;;;;;;;6.83;5.12;;;;;;;9.98;100.00;99322.67;1722084;82;21077;-72
2022/09/23 20:47:14;;;;;;;7.95;5.42;;;;;;;9.97;100.00;99324.58;1724370;82;20999;-71
2022/09/23 20:49:42;;;;;;;9.88;5.35;;;;;;;9.96;100.00;99321.58;1744320;81;21083;-72
2022/09/23 20:52:15;;;;;;;9.00;6.33;;;;;;;9.99;100.00;99320.20;1714035;82;20949;-72
2022/09/23 20:54:41;;;;;;;8.10;5.80;;;;;;;9.93;100.00;99321.32;1720012;82;21047;-72
2022/09/23 20:57:12;;;;;;;6.37;5.10;;;;;;;9.97;100.00;99319.68;1709288;84;21503;-72
2022/09/23 20:59:39;;;;;;;8.90;5.67;;;;;;;10.00;100.00;99319.12;1709387;82;21076;-72
2022/09/23 21:02:06;;;;;;;8.60;5.85;;;;;;;10.03;100.00;99319.92;1723410;82;21055;-72
2022/09/23 21:04:33;;;;;;;6.80;5.67;;;;;;;10.00;100.00;99315.86;1724116;82;21004;-72
2022/09/23 21:07:00;;;;;;;6.78;5.53;;;;;;;9.93;100.00;99319.42;1708302;82;21471;-72
2022/09/23 21:09:27;;;;;;;7.67;6.05;;;;;;;9.90;100.00;99321.34;1708023;82;21071;-72
2022/09/23 21:11:54;;;;;;;7.70;6.33;;;;;;;9.83;100.00;99320.00;1731047;82;21055;-70
2022/09/23 21:14:21;;;;;;;8.25;6.28;;;;;;;9.76;100.00;99314.86;1727497;82;21518;-72
2022/09/23 21:16:53;;;;;;;8.18;6.40;;;;;;;9.74;100.00;99319.74;1719757;81;21075;-74
2022/09/23 21:19:18;;;;;;;9.88;6.75;;;;;;;9.70;100.00;99317.88;1719996;82;21019;-71
2022/09/23 21:21:44;;;;;;;7.55;5.08;;;;;;;9.69;100.00;99317.05;1716540;82;21391;-72
2022/09/23 21:24:11;;;;;;;8.60;6.05;;;;;;;9.66;100.00;99315.43;1725382;82;21015;-72
2022/09/23 21:26:37;;;;;;;8.28;5.37;;;;;;;9.67;100.00;99313.78;1721912;82;21067;-72
2022/09/23 21:29:05;;;;;;;8.05;5.20;;;;;;;9.71;100.00;99308.61;1708491;82;21441;-70
2022/09/23 21:31:35;;;;;;;9.53;5.40;;;;;;;9.69;100.00;99310.26;1728519;82;21103;-70
2022/09/23 21:34:04;;;;;;;6.90;4.83;;;;;;;9.71;100.00;99319.48;1719177;82;21352;-70
2022/09/23 21:36:33;;;;;;;5.53;4.70;;;;;;;9.74;100.00;99309.44;1715628;82;21078;-70
2022/09/23 21:39:03;;;;;;;6.00;4.60;;;;;;;9.74;100.00;99311.59;1716185;82;21494;-70
2022/09/23 21:41:29;;;;;;;8.13;5.60;;;;;;;9.74;100.00;99308.08;1720430;82;21035;-70
2022/09/23 21:43:56;;;;;;;;;;;;;;;9.62;100.00;99311.09;1727541;82;21040;-70
2022/09/23 21:46:23;;;;;;;8.13;5.20;;;;;;;9.59;100.00;99304.86;1724725;82;20115;-70
2022/09/23 21:48:54;;;;;;;6.55;4.90;;;;;;;9.55;100.00;99309.75;1724273;81;20953;-70
2022/09/23 21:51:25;;;;;;;7.75;4.72;;;;;;;9.56;100.00;99302.69;1724551;81;21047;-70
2022/09/23 21:53:53;;;;;;;10.00;4.42;;;;;;;9.56;100.00;99301.88;1714891;82;21314;-70
2022/09/23 21:56:24;;;;;;;4.65;3.95;;;;;;;9.58;100.00;99309.20;1714090;83;21095;-69
2022/09/23 21:58:51;;;;;;;5.50;4.40;;;;;;;9.58;100.00;99303.22;1716124;82;21067;-70
2022/09/23 22:01:21;;;;;;;7.17;4.47;;;;;;;9.56;100.00;99301.33;1702246;82;21070;-70
2022/09/23 22:03:54;;;;;;;7.83;5.40;;;;;;;9.50;100.00;99300.52;1727074;82;21604;-70
2022/09/23 22:06:23;;;;;;;5.70;4.35;;;;;;;9.53;100.00;99295.64;1715850;83;21098;-70
2022/09/23 22:08:54;;;;;;;6.65;4.10;;;;;;;9.58;100.00;99305.12;1717569;82;21051;-70
2022/09/23 22:12:06;;;;;;;6.10;4.28;;;;;;;9.62;100.00;99308.37;1728660;82;21071;-70
2022/09/23 22:13:53;;;;;;;9.50;4.80;;;;;;;9.63;100.00;99303.77;1713139;83;21066;-70
2022/09/23 22:16:19;;;;;;;7.78;4.58;;;;;;;9.62;100.00;99309.73;1718663;82;21079;-70
2022/09/23 22:18:54;;;;;;;7.50;4.62;;;;;;;9.64;100.00;99304.01;1734502;82;21047;-70
2022/09/23 22:21:27;;;;;;;5.42;4.25;;;;;;;9.62;100.00;99302.94;1707538;82;21059;-70
2022/09/23 22:23:55;;;;;;;6.30;5.08;;;;;;;9.56;100.00;99301.33;1723270;82;21070;-70
2022/09/23 22:26:23;;;;;;;7.00;4.65;;;;;;;9.55;100.00;99301.05;1715542;83;21609;-70
2022/09/23 22:34:26;;;;;;;6.40;4.55;;;;;;;9.69;100.00;99301.29;1722033;82;21075;-70
2022/09/23 22:36:49;;;;;;;6.35;4.40;;;;;;;9.66;100.00;99301.84;1704273;82;21633;-70
2022/09/23 22:39:16;;;;;;;5.17;3.92;;;;;;;9.62;100.00;99308.92;1733941;82;21064;-70
2022/09/23 22:41:42;;;;;;;7.28;4.80;;;;;;;9.60;100.00;99302.39;1679832;84;21125;-70
2022/09/23 22:44:10;;;;;;;6.97;4.17;;;;;;;9.56;100.00;99300.52;1675195;84;21082;-70
2022/09/23 22:46:36;;;;;;;6.85;4.50;;;;;;;9.54;100.00;99307.57;1688886;84;21649;-70
2022/09/23 22:49:06;;;;;;;5.85;4.08;;;;;;;9.56;100.00;99297.26;1684715;84;21046;-70
2022/09/23 22:51:31;;;;;;;5.12;4.03;;;;;;;9.60;100.00;99300.23;1705779;83;21668;-69
2022/09/23 22:53:57;;;;;;;6.30;4.15;;;;;;;9.64;100.00;99302.65;1711400;83;21630;-70
2022/09/23 22:56:24;;;;;;;10.35;4.17;;;;;;;9.66;100.00;99298.59;1689759;83;21187;-71
2022/09/23 22:58:50;;;;;;;;;;;;;;;9.67;100.00;99298.05;1691390;83;21063;-70
2022/09/23 23:01:18;;;;;;;9.88;3.60;;;;;;;9.64;100.00;99293.13;1705674;83;20182;-70
2022/09/23 23:03:45;;;;;;;6.35;3.98;;;;;;;9.60;100.00;99294.80;1697474;83;21047;-70
2022/09/23 23:06:11;;;;;;;4.40;3.60;;;;;;;9.61;100.00;99295.87;1698551;83;21415;-70
2022/09/23 23:08:40;;;;;;;5.45;3.70;;;;;;;9.63;100.00;99295.61;1715230;83;21055;-70
2022/09/23 23:11:11;;;;;;;;;;;;;;;9.61;100.00;99297.77;1708210;83;21113;-70
2022/09/23 23:13:41;;;;;;;5.72;4.33;;;;;;;9.56;100.00;99288.28;1690554;83;20587;-68
2022/09/23 23:16:10;;;;;;;6.37;4.05;;;;;;;9.48;100.00;99289.66;1711232;83;21059;-70
2022/09/23 23:18:40;;;;;;;4.95;3.92;;;;;;;9.44;100.00;99283.96;1691968;83;21106;-70
2022/09/23 23:21:17;;;;;;;7.22;4.75;;;;;;;9.45;100.00;99283.42;1712526;83;21059;-70
2022/09/23 23:23:46;;;;;;;;;;;;;;;9.44;100.00;99285.86;1695924;83;21047;-69
2022/09/23 23:26:19;;;;;;;5.78;3.87;;;;;;;9.47;100.00;99293.45;1693400;83;20630;-68
2022/09/23 23:28:46;;;;;;;6.42;4.60;;;;;;;9.33;100.00;99282.89;1712853;83;20983;-68
2022/09/23 23:31:17;;;;;;;5.75;3.77;;;;;;;9.31;100.00;99287.26;1699136;83;21569;-68
2022/09/23 23:33:44;;;;;;;8.33;3.77;;;;;;;9.34;100.00;99287.24;1693636;83;21024;-68
2022/09/23 23:36:13;;;;;;;5.05;3.45;;;;;;;9.31;100.00;99279.11;1710757;83;21155;-68
2022/09/23 23:38:43;;;;;;;7.30;4.05;;;;;;;9.31;100.00;99272.86;1715808;83;21557;-70
2022/09/23 23:41:12;;;;;;;7.47;3.87;;;;;;;9.30;100.00;99273.94;1694027;83;21098;-69
2022/09/23 23:43:40;;;;;;;4.00;3.10;;;;;;;9.30;100.00;99277.47;1700385;83;21025;-69
2022/09/23 23:46:07;;;;;;;8.60;3.80;;;;;;;9.30;100.00;99277.47;1691249;83;21083;-70
2022/09/23 23:48:34;;;;;;;5.42;3.40;;;;;;;9.26;100.00;99268.78;1689549;83;21086;-71
2022/09/23 23:51:04;;;;;;;5.65;3.12;;;;;;;9.26;100.00;99272.31;1715342;83;21114;-71
2022/09/23 23:53:34;;;;;;;5.80;3.40;;;;;;;9.26;100.00;99277.75;1698179;83;21280;-69
2022/09/23 23:56:10;;;;;;;4.08;2.90;;;;;;;9.23;100.00;99270.69;1703984;83;21047;-68
2022/09/23 23:58:36;;;;;;;4.60;3.08;;;;;;;9.20;100.00;99268.52;1695692;83;21569;-68
